createdAt,value
2019-02-21T00:00:03.608Z,6.22
2019-02-21T00:02:32.003Z,5.93
2019-02-21T00:05:00.434Z,6.20
2019-02-21T00:07:28.840Z,5.78
2019-02-21T00:09:57.274Z,5.97
2019-02-21T00:12:25.731Z,5.55
2019-02-21T00:14:54.130Z,6.17
2019-02-21T00:17:22.526Z,6.03
2019-02-21T00:19:50.957Z,6.50
2019-02-21T00:22:19.398Z,6.55
2019-02-21T00:24:47.823Z,6.15
2019-02-21T00:27:16.251Z,6.95
2019-02-21T00:29:44.667Z,6.65
2019-02-21T00:32:13.079Z,6.35
2019-02-21T00:34:41.496Z,6.27
2019-02-21T00:37:09.954Z,6.40
2019-02-21T00:39:38.395Z,6.62
2019-02-21T00:42:06.843Z,5.67
2019-02-21T00:44:35.285Z,4.80
2019-02-21T00:47:03.719Z,5.75
2019-02-21T00:49:32.148Z,7.63
2019-02-21T00:52:02.638Z,6.42
2019-02-21T00:54:30.713Z,5.80
2019-02-21T00:56:59.153Z,6.12
2019-02-21T00:59:27.587Z,6.37
2019-02-21T01:01:56.029Z,5.65
2019-02-21T01:04:24.466Z,6.85
2019-02-21T01:06:52.901Z,5.27
2019-02-21T01:09:21.341Z,6.20
2019-02-21T01:11:49.804Z,5.92
2019-02-21T01:14:18.252Z,6.37
2019-02-21T01:16:46.689Z,5.97
2019-02-21T01:19:15.106Z,6.85
2019-02-21T01:21:43.603Z,8.30
2019-02-21T01:24:12.012Z,5.80
2019-02-21T01:26:40.456Z,7.97
2019-02-21T01:29:08.886Z,6.15
2019-02-21T01:31:37.322Z,7.45
2019-02-21T01:34:05.736Z,6.60
2019-02-21T01:36:34.178Z,6.83
2019-02-21T01:39:02.582Z,6.23
2019-02-21T01:41:31.108Z,7.10
2019-02-21T01:43:59.515Z,7.73
2019-02-21T01:46:27.950Z,8.03
2019-02-21T01:48:56.385Z,7.37
2019-02-21T01:51:24.899Z,7.17
2019-02-21T01:53:53.326Z,6.77
2019-02-21T01:56:21.748Z,5.33
2019-02-21T01:58:50.164Z,6.03
2019-02-21T02:01:18.587Z,5.95
2019-02-21T02:03:47.123Z,6.83
2019-02-21T02:06:15.538Z,7.17
2019-02-21T02:08:43.966Z,6.80
2019-02-21T02:11:12.372Z,6.10
2019-02-21T02:13:40.804Z,5.95
2019-02-21T02:16:09.246Z,8.68
2019-02-21T02:18:37.684Z,6.25
2019-02-21T02:21:06.768Z,6.35
2019-02-21T02:23:35.218Z,6.15
2019-02-21T02:26:03.740Z,7.10
2019-02-21T02:28:32.158Z,6.05
2019-02-21T02:31:00.572Z,6.33
2019-02-21T02:33:29.013Z,6.83
2019-02-21T02:35:57.431Z,5.80
2019-02-21T02:38:25.857Z,6.55
2019-02-21T02:40:54.262Z,6.60
2019-02-21T02:43:22.695Z,6.55
2019-02-21T02:45:51.107Z,6.10
2019-02-21T02:48:19.543Z,6.25
2019-02-21T02:50:47.980Z,6.70
2019-02-21T02:53:16.429Z,6.90
2019-02-21T02:55:44.862Z,5.33
2019-02-21T02:58:13.643Z,6.47
2019-02-21T03:00:42.088Z,7.03
2019-02-21T03:03:10.497Z,6.97
2019-02-21T03:05:38.910Z,6.53
2019-02-21T03:08:07.354Z,6.37
2019-02-21T03:10:35.770Z,6.33
2019-02-21T03:13:04.209Z,5.50
2019-02-21T03:15:32.653Z,5.58
2019-02-21T03:18:01.143Z,7.13
2019-02-21T03:20:29.575Z,5.70
2019-02-21T03:22:58.033Z,7.15
2019-02-21T03:25:27.355Z,5.93
2019-02-21T03:27:55.783Z,6.37
2019-02-21T03:30:24.197Z,6.35
2019-02-21T03:32:54.760Z,9.13
2019-02-21T03:35:23.214Z,6.27
2019-02-21T03:37:51.638Z,6.13
2019-02-21T03:40:20.036Z,6.20
2019-02-21T03:42:48.475Z,6.77
2019-02-21T03:45:16.965Z,6.50
2019-02-21T03:47:45.393Z,8.00
2019-02-21T03:50:13.971Z,6.53
2019-02-21T03:52:42.365Z,5.87
2019-02-21T03:55:10.809Z,6.47
2019-02-21T03:57:39.249Z,6.70
2019-02-21T04:00:13.723Z,6.43
2019-02-21T04:02:42.145Z,7.05
2019-02-21T04:05:10.631Z,6.10
2019-02-21T04:07:39.049Z,5.92
2019-02-21T04:10:09.129Z,4.92
2019-02-21T04:12:37.536Z,5.78
2019-02-21T04:15:11.353Z,5.13
2019-02-21T04:17:39.778Z,6.30
2019-02-21T04:20:09.550Z,5.53
2019-02-21T04:22:37.963Z,6.45
2019-02-21T04:25:06.949Z,6.67
2019-02-21T04:27:35.363Z,6.23
2019-02-21T04:30:04.083Z,5.67
2019-02-21T04:32:32.481Z,5.47
2019-02-21T04:35:00.915Z,5.30
2019-02-21T04:37:29.325Z,6.83
2019-02-21T04:39:57.727Z,6.40
2019-02-21T04:42:26.153Z,5.93
2019-02-21T04:44:54.559Z,5.57
2019-02-21T04:47:22.985Z,6.43
2019-02-21T04:49:51.431Z,6.40
2019-02-21T04:52:19.859Z,6.43
2019-02-21T04:54:48.293Z,5.87
2019-02-21T04:57:16.735Z,6.10
2019-02-21T04:59:45.140Z,6.37
2019-02-21T05:02:13.565Z,6.17
2019-02-21T05:04:41.977Z,7.00
2019-02-21T05:07:10.407Z,6.03
2019-02-21T05:09:38.819Z,5.97
2019-02-21T05:12:07.250Z,6.57
2019-02-21T05:14:35.664Z,6.33
2019-02-21T05:17:04.117Z,6.95
2019-02-21T05:19:32.518Z,5.75
2019-02-21T05:22:00.933Z,7.62
2019-02-21T05:24:29.347Z,6.57
2019-02-21T05:26:59.398Z,6.42
2019-02-21T05:29:27.845Z,5.60
2019-02-21T05:31:57.907Z,6.58
2019-02-21T05:34:30.863Z,6.08
2019-02-21T05:37:17.381Z,6.37
2019-02-21T05:40:02.949Z,6.23
2019-02-21T05:42:48.042Z,7.80
2019-02-21T05:45:27.115Z,7.33
2019-02-21T05:48:06.454Z,7.50
2019-02-21T05:50:36.513Z,9.68
2019-02-21T05:53:06.588Z,8.67
2019-02-21T05:55:36.667Z,7.42
2019-02-21T05:58:22.883Z,8.70
2019-02-21T06:01:01.800Z,7.07
2019-02-21T06:03:47.162Z,7.97
2019-02-21T06:06:22.985Z,5.92
2019-02-21T06:08:58.803Z,7.67
2019-02-21T06:11:31.334Z,7.97
2019-02-21T06:14:13.794Z,9.33
2019-02-21T06:16:49.619Z,6.87
2019-02-21T06:19:22.123Z,7.45
2019-02-21T06:22:10.101Z,6.12
2019-02-21T06:24:33.075Z,6.37
2019-02-21T06:27:03.155Z,7.25
2019-02-21T06:29:34.058Z,6.20
2019-02-21T06:32:13.522Z,5.87
2019-02-21T06:34:32.803Z,6.20
2019-02-21T06:37:01.239Z,6.97
2019-02-21T06:39:29.681Z,6.90
2019-02-21T06:41:59.853Z,8.50
2019-02-21T06:44:28.243Z,8.20
2019-02-21T06:46:56.696Z,5.60
2019-02-21T06:49:32.650Z,7.13
2019-02-21T06:51:55.249Z,6.20
2019-02-21T06:54:23.667Z,6.42
2019-02-21T06:56:52.080Z,6.22
2019-02-21T06:59:20.525Z,6.33
2019-02-21T07:01:48.966Z,4.92
2019-02-21T07:04:17.384Z,4.80
2019-02-21T07:06:45.834Z,6.15
2019-02-21T07:09:14.244Z,6.40
2019-02-21T07:11:42.700Z,6.67
2019-02-21T07:14:11.155Z,5.55
2019-02-21T07:16:39.567Z,5.53
2019-02-21T07:19:07.974Z,7.10
2019-02-21T07:21:36.684Z,6.95
2019-02-21T07:24:05.122Z,7.15
2019-02-21T07:26:33.532Z,7.25
2019-02-21T07:29:02.052Z,5.62
2019-02-21T07:31:32.530Z,6.78
2019-02-21T07:34:01.656Z,7.92
2019-02-21T07:36:30.443Z,6.73
2019-02-21T07:39:13.944Z,6.43
2019-02-21T07:41:29.004Z,8.98
2019-02-21T07:43:57.453Z,6.55
2019-02-21T07:46:25.902Z,5.90
2019-02-21T07:48:54.386Z,6.33
2019-02-21T07:51:22.818Z,6.33
2019-02-21T07:53:51.232Z,6.62
2019-02-21T07:56:19.680Z,7.67
2019-02-21T07:58:48.088Z,6.72
2019-02-21T08:01:17.516Z,5.62
2019-02-21T08:03:48.542Z,5.75
2019-02-21T08:06:16.288Z,7.03
2019-02-21T08:08:45.069Z,9.35
2019-02-21T08:11:13.788Z,7.37
2019-02-21T08:13:42.239Z,8.25
2019-02-21T08:16:12.541Z,8.20
2019-02-21T08:18:40.893Z,7.08
2019-02-21T08:21:09.252Z,6.53
2019-02-21T08:23:37.678Z,7.42
2019-02-21T08:26:06.109Z,9.70
2019-02-21T08:28:34.522Z,6.67
2019-02-21T08:31:02.978Z,6.83
2019-02-21T08:33:33.078Z,10.05
2019-02-21T08:36:01.485Z,6.78
2019-02-21T08:38:29.912Z,7.53
2019-02-21T08:40:58.354Z,10.30
2019-02-21T08:43:26.766Z,9.23
2019-02-21T08:45:57.479Z,8.95
2019-02-21T08:48:25.341Z,9.97
2019-02-21T08:50:53.782Z,8.40
2019-02-21T08:53:22.237Z,8.60
2019-02-21T08:55:50.634Z,7.35
2019-02-21T08:58:19.073Z,6.90
2019-02-21T09:00:47.485Z,6.53
2019-02-21T09:03:17.999Z,5.72
2019-02-21T09:05:46.249Z,5.87
2019-02-21T09:08:16.594Z,6.15
2019-02-21T09:10:44.981Z,7.10
2019-02-21T09:13:13.457Z,7.40
2019-02-21T09:15:41.880Z,7.33
2019-02-21T09:18:10.307Z,5.22
2019-02-21T09:20:38.732Z,7.83
2019-02-21T09:23:07.146Z,5.10
2019-02-21T09:25:35.705Z,6.12
2019-02-21T09:28:04.130Z,5.67
2019-02-21T09:30:32.552Z,5.47
2019-02-21T09:33:00.986Z,6.08
2019-02-21T09:35:29.404Z,9.95
2019-02-21T09:37:57.904Z,6.40
2019-02-21T09:40:28.549Z,8.28
2019-02-21T09:42:56.786Z,7.75
2019-02-21T09:45:25.223Z,6.30
2019-02-21T09:47:53.642Z,6.70
2019-02-21T09:50:22.071Z,6.60
2019-02-21T09:52:50.477Z,7.33
2019-02-21T09:55:19.041Z,6.40
2019-02-21T09:57:47.471Z,7.83
2019-02-21T10:00:21.135Z,5.92
2019-02-21T10:02:49.558Z,9.43
2019-02-21T10:05:18.130Z,6.00
2019-02-21T10:07:46.577Z,7.15
2019-02-21T10:10:20.786Z,5.95
2019-02-21T10:12:49.221Z,6.70
2019-02-21T10:15:17.786Z,7.10
2019-02-21T10:17:46.216Z,6.65
2019-02-21T10:20:22.436Z,6.03
2019-02-21T10:22:51.019Z,5.78
2019-02-21T10:25:28.047Z,7.12
2019-02-21T10:27:58.882Z,6.25
2019-02-21T10:30:26.637Z,6.72
2019-02-21T10:32:55.075Z,6.83
2019-02-21T10:35:23.493Z,7.03
2019-02-21T10:37:51.933Z,7.12
2019-02-21T10:40:20.824Z,6.20
2019-02-21T10:42:49.222Z,7.22
2019-02-21T10:45:19.870Z,5.90
2019-02-21T10:47:48.381Z,8.13
2019-02-21T10:50:19.282Z,6.72
2019-02-21T10:52:48.149Z,5.50
2019-02-21T10:55:17.929Z,6.92
2019-02-21T10:57:46.412Z,5.97
2019-02-21T11:00:27.037Z,6.15
2019-02-21T11:02:55.492Z,7.42
2019-02-21T11:05:23.914Z,9.80
2019-02-21T11:07:52.356Z,8.63
2019-02-21T11:10:30.798Z,7.62
2019-02-21T11:12:59.201Z,8.05
2019-02-21T11:15:27.652Z,7.42
2019-02-21T11:17:56.056Z,6.78
2019-02-21T11:20:24.561Z,6.83
2019-02-21T11:22:52.969Z,7.72
2019-02-21T11:25:21.384Z,8.95
2019-02-21T11:27:49.843Z,5.80
2019-02-21T11:30:21.880Z,7.13
2019-02-21T11:32:50.368Z,5.45
2019-02-21T11:35:18.804Z,5.20
2019-02-21T11:37:47.712Z,7.12
2019-02-21T11:40:17.357Z,8.98
2019-02-21T11:42:45.930Z,6.60
2019-02-21T11:45:19.324Z,6.90
2019-02-21T11:47:47.879Z,6.37
2019-02-21T11:50:17.439Z,7.97
2019-02-21T11:52:46.053Z,6.80
2019-02-21T11:55:23.146Z,7.03
2019-02-21T11:57:51.579Z,7.35
2019-02-21T12:00:22.228Z,6.62
2019-02-21T12:02:50.658Z,6.42
2019-02-21T12:05:30.229Z,7.95
2019-02-21T12:07:49.238Z,6.83
2019-02-21T12:10:17.666Z,6.25
2019-02-21T12:12:46.079Z,6.97
2019-02-21T12:15:15.862Z,6.70
2019-02-21T12:17:44.585Z,6.55
2019-02-21T12:20:17.125Z,6.80
2019-02-21T12:22:45.541Z,6.47
2019-02-21T12:25:18.647Z,7.10
2019-02-21T12:27:47.066Z,6.95
2019-02-21T12:30:17.535Z,7.03
2019-02-21T12:32:46.024Z,7.58
2019-02-21T12:35:14.987Z,8.98
2019-02-21T12:37:43.585Z,7.70
2019-02-21T12:40:17.303Z,7.55
2019-02-21T12:42:45.730Z,7.70
2019-02-21T12:45:25.577Z,7.83
2019-02-21T12:47:54.321Z,6.22
2019-02-21T12:50:22.888Z,9.48
2019-02-21T12:52:51.307Z,9.85
2019-02-21T12:55:27.549Z,6.92
2019-02-21T12:57:49.897Z,7.95
2019-02-21T13:00:22.377Z,7.42
2019-02-21T13:02:50.745Z,6.78
2019-02-21T13:05:19.180Z,6.87
2019-02-21T13:07:47.607Z,11.00
2019-02-21T13:10:18.323Z,7.65
2019-02-21T13:12:46.827Z,7.50
2019-02-21T13:15:15.802Z,6.75
2019-02-21T13:17:44.225Z,8.28
2019-02-21T13:20:14.305Z,9.35
2019-02-21T13:22:42.913Z,6.62
2019-02-21T13:25:16.456Z,6.65
2019-02-21T13:27:44.899Z,5.25
2019-02-21T13:30:18.086Z,6.15
2019-02-21T13:32:46.677Z,8.40
2019-02-21T13:35:15.448Z,6.58
2019-02-21T13:37:44.039Z,7.03
2019-02-21T13:40:17.043Z,6.03
2019-02-21T13:42:45.479Z,6.95
2019-02-21T13:45:17.383Z,6.92
2019-02-21T13:47:45.557Z,8.80
2019-02-21T13:50:18.986Z,6.85
2019-02-21T13:52:47.404Z,6.35
2019-02-21T13:55:16.043Z,6.15
2019-02-21T13:57:44.590Z,7.17
2019-02-21T14:00:23.367Z,10.13
2019-02-21T14:02:51.808Z,6.15
2019-02-21T14:05:20.211Z,7.13
2019-02-21T14:07:48.650Z,7.67
2019-02-21T14:10:17.258Z,6.65
2019-02-21T14:12:45.679Z,6.85
2019-02-21T14:15:17.196Z,8.53
2019-02-21T14:17:46.691Z,5.87
2019-02-21T14:20:15.338Z,6.47
2019-02-21T14:22:43.778Z,6.72
2019-02-21T14:25:12.488Z,5.95
2019-02-21T14:27:40.906Z,5.50
2019-02-21T14:30:12.402Z,5.35
2019-02-21T14:32:40.893Z,6.80
2019-02-21T14:35:11.589Z,5.92
2019-02-21T14:37:40.070Z,5.85
2019-02-21T14:40:12.531Z,6.77
2019-02-21T14:42:41.001Z,8.60
2019-02-21T14:45:15.378Z,6.55
2019-02-21T14:47:43.792Z,7.45
2019-02-21T14:50:13.588Z,6.28
2019-02-21T14:52:42.013Z,6.33
2019-02-21T14:55:12.970Z,6.22
2019-02-21T14:57:41.538Z,5.58
2019-02-21T15:00:18.627Z,6.03
2019-02-21T15:02:47.035Z,5.10
2019-02-21T15:05:15.621Z,6.25
2019-02-21T15:07:44.062Z,7.65
2019-02-21T15:10:12.658Z,7.90
2019-02-21T15:12:41.070Z,6.42
2019-02-21T15:15:26.345Z,7.25
2019-02-21T15:18:06.657Z,10.38
2019-02-21T15:20:35.840Z,8.60
2019-02-21T15:22:55.061Z,12.05
2019-02-21T15:25:23.513Z,11.33
2019-02-21T15:27:51.955Z,10.98
2019-02-21T15:30:22.842Z,9.30
2019-02-21T15:32:51.287Z,13.48
2019-02-21T15:35:19.606Z,12.70
2019-02-21T15:37:48.344Z,12.03
2019-02-21T15:40:16.776Z,16.30
2019-02-21T15:42:45.191Z,10.10
2019-02-21T15:45:22.902Z,13.48
2019-02-21T15:47:46.498Z,11.15
2019-02-21T15:50:15.546Z,12.68
2019-02-21T15:52:45.393Z,15.03
2019-02-21T15:55:16.092Z,14.68
2019-02-21T15:57:44.514Z,13.70
2019-02-21T16:00:18.628Z,15.03
2019-02-21T16:02:47.120Z,12.82
2019-02-21T16:05:15.618Z,17.07
2019-02-21T16:07:44.031Z,13.10
2019-02-21T16:10:18.335Z,14.30
2019-02-21T16:12:47.514Z,9.98
2019-02-21T16:15:16.783Z,12.75
2019-02-21T16:17:45.516Z,15.13
2019-02-21T16:20:16.351Z,11.03
2019-02-21T16:22:45.285Z,14.00
2019-02-21T16:25:22.311Z,17.57
2019-02-21T16:27:50.697Z,19.07
2019-02-21T16:30:21.736Z,14.70
2019-02-21T16:32:49.293Z,12.53
2019-02-21T16:35:17.741Z,15.88
2019-02-21T16:37:46.179Z,11.50
2019-02-21T16:40:16.459Z,11.63
2019-02-21T16:42:44.874Z,10.45
2019-02-21T16:45:18.709Z,11.22
2019-02-21T16:47:47.390Z,15.00
2019-02-21T16:50:15.913Z,14.30
2019-02-21T16:52:44.329Z,14.73
2019-02-21T16:55:18.291Z,18.50
2019-02-21T16:57:46.795Z,22.67
2019-02-21T17:00:17.694Z,18.90
2019-02-21T17:02:46.213Z,16.17
2019-02-21T17:05:15.473Z,17.98
2019-02-21T17:07:43.983Z,14.23
2019-02-21T17:10:13.943Z,17.23
2019-02-21T17:12:42.487Z,20.57
2019-02-21T17:15:15.683Z,22.70
2019-02-21T17:17:44.285Z,18.97
2019-02-21T17:20:15.493Z,22.47
2019-02-21T17:22:44.020Z,16.60
2019-02-21T17:25:14.309Z,18.40
2019-02-21T17:27:43.072Z,16.87
2019-02-21T17:30:16.525Z,15.83
2019-02-21T17:32:45.013Z,17.03
2019-02-21T17:35:14.198Z,13.10
2019-02-21T17:37:42.688Z,13.07
2019-02-21T17:40:19.853Z,13.90
2019-02-21T17:42:48.299Z,13.20
2019-02-21T17:45:16.779Z,18.10
2019-02-21T17:47:45.195Z,9.23
2019-02-21T17:50:15.759Z,15.30
2019-02-21T17:52:44.216Z,13.58
2019-02-21T17:55:12.730Z,11.00
2019-02-21T17:57:41.155Z,11.70
2019-02-21T18:00:19.565Z,12.95
2019-02-21T18:02:48.019Z,12.30
2019-02-21T18:05:16.501Z,13.98
2019-02-21T18:07:44.937Z,11.03
2019-02-21T18:10:15.089Z,12.07
2019-02-21T18:12:43.538Z,9.65
2019-02-21T18:15:16.253Z,10.10
2019-02-21T18:17:44.692Z,12.18
2019-02-21T18:20:15.087Z,9.93
2019-02-21T18:22:43.593Z,10.07
2019-02-21T18:25:18.127Z,8.60
2019-02-21T18:27:46.581Z,11.48
2019-02-21T18:30:16.933Z,8.30
2019-02-21T18:32:45.378Z,10.00
2019-02-21T18:35:14.129Z,11.47
2019-02-21T18:37:47.494Z,9.53
2019-02-21T18:40:21.326Z,10.00
2019-02-21T18:42:49.935Z,6.47
2019-02-21T18:45:18.362Z,6.03
2019-02-21T18:47:46.838Z,9.67
2019-02-21T18:50:15.708Z,8.57
2019-02-21T18:52:44.213Z,10.13
2019-02-21T18:55:12.842Z,11.83
2019-02-21T18:57:41.263Z,9.63
2019-02-21T19:00:13.165Z,6.97
2019-02-21T19:02:41.585Z,12.20
2019-02-21T19:05:10.097Z,7.63
2019-02-21T19:07:38.622Z,9.63
2019-02-21T19:10:12.642Z,10.95
2019-02-21T19:12:41.091Z,11.43
2019-02-21T19:15:11.255Z,11.08
2019-02-21T19:17:39.756Z,13.57
2019-02-21T19:20:15.797Z,10.70
2019-02-21T19:22:44.209Z,7.87
2019-02-21T19:25:13.694Z,10.18
2019-02-21T19:27:42.185Z,11.68
2019-02-21T19:30:19.731Z,16.62
2019-02-21T19:32:48.252Z,11.80
2019-02-21T19:35:17.134Z,15.50
2019-02-21T19:37:45.552Z,21.97
2019-02-21T19:40:14.225Z,11.50
2019-02-21T19:42:42.652Z,13.55
2019-02-21T19:45:11.231Z,15.72
2019-02-21T19:51:14.666Z,9.80
2019-02-21T19:53:43.070Z,9.75
2019-02-21T19:56:11.510Z,11.93
2019-02-21T19:58:39.942Z,14.78
2019-02-21T20:01:08.430Z,14.63
2019-02-21T20:03:37.024Z,26.97
2019-02-21T20:06:05.576Z,35.50
2019-02-21T20:08:34.016Z,40.23
2019-02-21T20:11:02.476Z,38.48
2019-02-21T20:13:30.878Z,33.15
2019-02-21T20:15:59.319Z,33.65
2019-02-21T20:18:27.825Z,39.53
2019-02-21T20:20:56.238Z,33.48
2019-02-21T20:23:24.684Z,36.83
2019-02-21T20:25:53.165Z,39.95
2019-02-21T20:28:21.598Z,31.27
2019-02-21T20:30:50.023Z,21.48
2019-02-21T20:33:18.421Z,31.07
2019-02-21T20:35:46.839Z,37.83
2019-02-21T20:38:15.262Z,38.02
2019-02-21T20:40:43.668Z,30.10
2019-02-21T20:43:12.102Z,24.05
2019-02-21T20:45:40.536Z,25.05
2019-02-21T20:48:08.984Z,25.20
2019-02-21T20:50:37.420Z,33.20
2019-02-21T20:53:05.833Z,44.70
2019-02-21T20:55:43.294Z,42.90
2019-02-21T20:58:04.480Z,31.87
2019-02-21T21:00:33.062Z,41.00
2019-02-21T21:03:01.496Z,45.40
2019-02-21T21:05:29.974Z,33.92
2019-02-21T21:07:58.406Z,29.15
2019-02-21T21:10:26.822Z,36.13
2019-02-21T21:12:55.293Z,31.33
2019-02-21T21:15:23.733Z,36.45
2019-02-21T21:17:52.166Z,29.50
2019-02-21T21:20:20.597Z,36.53
2019-02-21T21:22:48.996Z,30.70
2019-02-21T21:25:18.334Z,42.10
2019-02-21T21:27:46.854Z,36.58
2019-02-21T21:30:18.658Z,40.73
2019-02-21T21:32:47.258Z,48.63
2019-02-21T21:35:15.784Z,42.62
2019-02-21T21:37:44.186Z,39.18
2019-02-21T21:40:15.406Z,39.15
2019-02-21T21:42:43.818Z,45.10
2019-02-21T21:45:18.122Z,33.25
2019-02-21T21:47:46.556Z,33.67
2019-02-21T21:50:17.129Z,34.58
2019-02-21T21:52:45.739Z,30.17
2019-02-21T21:55:14.411Z,30.25
2019-02-21T21:57:43.024Z,33.83
2019-02-21T22:00:18.092Z,32.48
2019-02-21T22:02:46.784Z,30.25
2019-02-21T22:05:15.218Z,35.65
2019-02-21T22:07:43.658Z,27.00
2019-02-21T22:10:15.942Z,22.62
2019-02-21T22:12:44.739Z,29.87
2019-02-21T22:15:15.428Z,24.55
2019-02-21T22:17:43.912Z,31.87
2019-02-21T22:20:12.405Z,28.02
2019-02-21T22:22:40.810Z,28.10
2019-02-21T22:25:11.624Z,28.85
2019-02-21T22:27:40.161Z,22.27
2019-02-21T22:30:11.631Z,22.13
2019-02-21T22:32:40.066Z,23.98
2019-02-21T22:35:08.823Z,22.05
2019-02-21T22:37:37.312Z,22.42
2019-02-21T22:40:10.742Z,15.43
2019-02-21T22:42:39.187Z,18.12
2019-02-21T22:45:09.137Z,16.27
2019-02-21T22:47:37.548Z,17.23
2019-02-21T22:50:16.906Z,15.78
2019-02-21T22:52:45.428Z,13.30
2019-02-21T22:55:13.887Z,16.90
2019-02-21T22:57:42.388Z,14.43
2019-02-21T23:00:54.453Z,13.20
2019-02-21T23:03:25.720Z,14.10
2019-02-21T23:06:16.912Z,12.75
2019-02-21T23:08:48.388Z,15.60
2019-02-21T23:11:16.802Z,14.07
2019-02-21T23:13:45.743Z,12.40
2019-02-21T23:16:14.180Z,11.83
2019-02-21T23:18:42.595Z,12.53
2019-02-21T23:21:11.006Z,12.68
2019-02-21T23:23:39.436Z,11.65
2019-02-21T23:26:07.857Z,13.10
2019-02-21T23:28:36.280Z,13.03
2019-02-21T23:31:04.695Z,11.50
2019-02-21T23:33:34.738Z,18.62
2019-02-21T23:36:03.732Z,13.60
2019-02-21T23:38:32.156Z,12.58
2019-02-21T23:41:00.594Z,13.80
2019-02-21T23:43:29.005Z,13.72
2019-02-21T23:45:57.498Z,10.95
2019-02-21T23:48:25.925Z,15.80
2019-02-21T23:50:54.352Z,13.85
2019-02-21T23:53:22.788Z,10.05
2019-02-21T23:55:51.190Z,12.50
2019-02-21T23:58:19.621Z,12.73
